Time;durP1;ratioP1;P1;durP2;ratioP2;P2;SDS_P1;SDS_P2;PMS_P1;PMS_P2;Temp;Humidity;BMP_temperature;BMP_pressure;BME280_temperature;BME280_humidity;BME280_pressure;Samples;Min_cycle;Max_cycle;Signal;HPM_P1;HPM_P2
2023/04/12 00:01:13;;;;;;;2.70;1.40;;;9.30;99.90;;;;;;5034915;28;20383;-82
2023/04/12 00:03:38;;;;;;;2.67;1.60;;;9.30;99.90;;;;;;5036969;28;20379;-82
2023/04/12 00:06:06;;;;;;;3.20;1.70;;;9.30;99.90;;;;;;5036371;28;20790;-83
2023/04/12 00:08:32;;;;;;;2.07;1.30;;;9.30;99.90;;;;;;5021614;28;20478;-82
2023/04/12 00:10:59;;;;;;;3.45;1.80;;;9.20;99.90;;;;;;5021057;28;20391;-82
2023/04/12 00:13:25;;;;;;;2.50;1.50;;;9.30;99.90;;;;;;5019691;28;20419;-82
2023/04/12 00:15:50;;;;;;;1.47;1.30;;;9.30;99.90;;;;;;5052097;28;20430;-82
2023/04/12 00:18:16;;;;;;;3.07;1.77;;;9.20;99.90;;;;;;5054015;28;20399;-82
2023/04/12 00:20:42;;;;;;;2.00;1.53;;;9.10;99.90;;;;;;5048028;28;20459;-83
2023/04/12 00:23:08;;;;;;;3.13;1.60;;;9.20;99.90;;;;;;5041474;28;20399;-82
2023/04/12 00:25:35;;;;;;;4.05;1.90;;;9.20;99.90;;;;;;5041642;28;20715;-82
2023/04/12 00:28:01;;;;;;;2.08;1.40;;;9.20;99.90;;;;;;5041566;28;20875;-82
2023/04/12 00:30:27;;;;;;;2.20;1.70;;;9.20;99.90;;;;;;5022993;28;20410;-82
2023/04/12 00:32:52;;;;;;;1.98;1.45;;;9.20;99.90;;;;;;5040807;28;20414;-82
2023/04/12 00:35:18;;;;;;;2.50;1.90;;;9.20;99.90;;;;;;5038672;28;20480;-82
2023/04/12 00:37:43;;;;;;;1.95;1.70;;;9.30;99.90;;;;;;5039628;28;20820;-82
2023/04/12 00:40:10;;;;;;;3.30;1.80;;;9.20;99.90;;;;;;5037909;28;20386;-82
2023/04/12 00:42:36;;;;;;;2.10;1.70;;;9.20;99.90;;;;;;5020978;28;20383;-82
2023/04/12 00:45:02;;;;;;;2.60;1.90;;;9.00;99.90;;;;;;5020876;28;20402;-82
2023/04/12 00:47:29;;;;;;;2.67;1.70;;;9.00;99.90;;;;;;5039090;28;20832;-82
2023/04/12 00:49:55;;;;;;;2.67;1.70;;;9.00;99.90;;;;;;5020934;28;20395;-82
2023/04/12 00:52:22;;;;;;;2.53;1.60;;;8.90;99.90;;;;;;5039867;28;20466;-82
2023/04/12 00:54:48;;;;;;;3.00;1.90;;;8.90;99.90;;;;;;5021604;28;20391;-82
2023/04/12 00:57:13;;;;;;;3.00;1.63;;;8.90;99.90;;;;;;5038576;28;20391;-81
2023/04/12 00:59:39;;;;;;;2.53;1.42;;;8.80;99.90;;;;;;5039423;28;20420;-81
2023/04/12 01:02:06;;;;;;;2.80;2.00;;;8.80;99.90;;;;;;5038166;28;20458;-82
2023/04/12 01:04:33;;;;;;;2.70;1.77;;;8.80;99.90;;;;;;5020026;28;20391;-82
2023/04/12 01:07:20;;;;;;;1.83;1.35;;;8.80;99.90;;;;;;5026197;28;20386;-81
2023/04/12 01:10:00;;;;;;;3.70;1.70;;;8.80;99.90;;;;;;5044671;28;20411;-82
2023/04/12 01:12:40;;;;;;;1.75;1.48;;;8.80;99.90;;;;;;5042218;28;20406;-83
2023/04/12 01:15:09;;;;;;;2.38;1.30;;;8.70;99.90;;;;;;5024598;28;20397;-82
2023/04/12 01:17:42;;;;;;;1.83;1.30;;;8.80;99.90;;;;;;5023648;28;20387;-82
2023/04/12 01:20:13;;;;;;;1.58;1.25;;;8.80;99.90;;;;;;5041679;28;20908;-82
2023/04/12 01:23:31;;;;;;;2.67;1.30;;;8.70;99.90;;;;;;5041628;28;20838;-82
2023/04/12 01:26:38;;;;;;;2.10;1.40;;;8.80;99.90;;;;;;5023415;28;20379;-82
2023/04/12 01:29:10;;;;;;;1.50;1.40;;;8.70;99.90;;;;;;5032676;28;20407;-82
2023/04/12 01:31:38;;;;;;;1.55;1.42;;;8.70;99.90;;;;;;5041390;28;20422;-82
2023/04/12 01:34:05;;;;;;;2.90;1.30;;;8.80;99.90;;;;;;5023025;28;20460;-82
2023/04/12 01:36:32;;;;;;;3.28;1.20;;;8.90;99.90;;;;;;5022141;28;20390;-82
2023/04/12 01:38:59;;;;;;;2.05;1.30;;;8.80;99.90;;;;;;5040246;28;20572;-82
2023/04/12 01:41:25;;;;;;;2.90;1.48;;;8.80;99.90;;;;;;5022167;28;20383;-82
2023/04/12 01:43:50;;;;;;;1.70;1.00;;;8.70;99.90;;;;;;5039540;28;20399;-82
2023/04/12 01:46:19;;;;;;;1.17;1.08;;;8.80;99.90;;;;;;5039417;28;20414;-82
2023/04/12 01:48:51;;;;;;;2.25;1.30;;;8.80;99.90;;;;;;5022377;28;20940;-82
2023/04/12 01:51:59;;;;;;;1.67;1.50;;;8.70;99.90;;;;;;5022439;28;20944;-82
2023/04/12 01:54:27;;;;;;;2.40;1.50;;;8.60;99.90;;;;;;5022557;28;20425;-82
2023/04/12 01:56:58;;;;;;;2.83;1.50;;;8.60;99.90;;;;;;5038679;28;20396;-82
2023/04/12 01:59:42;;;;;;;1.50;1.27;;;8.70;99.90;;;;;;5036534;28;20387;-82
2023/04/12 02:02:09;;;;;;;2.00;1.20;;;8.70;99.90;;;;;;5037890;28;20391;-82
2023/04/12 02:04:35;;;;;;;3.42;1.60;;;8.70;99.90;;;;;;5037061;28;20889;-82
2023/04/12 02:07:01;;;;;;;2.25;1.30;;;8.70;99.90;;;;;;5050642;28;20437;-82
2023/04/12 02:09:27;;;;;;;1.90;1.50;;;8.70;99.90;;;;;;5052338;28;20406;-82
2023/04/12 02:11:52;;;;;;;2.40;1.70;;;8.70;99.90;;;;;;5049061;28;20421;-82
2023/04/12 02:14:18;;;;;;;1.60;1.20;;;8.80;99.90;;;;;;5028411;28;20726;-83
2023/04/12 02:16:44;;;;;;;2.97;1.60;;;8.70;99.90;;;;;;5044301;28;20407;-83
2023/04/12 02:19:10;;;;;;;2.60;1.60;;;8.70;99.90;;;;;;5026370;28;20395;-83
2023/04/12 02:21:41;;;;;;;1.80;1.70;;;8.70;99.90;;;;;;5044489;28;20391;-83
2023/04/12 02:24:07;;;;;;;2.17;1.57;;;8.60;99.90;;;;;;5025631;28;20387;-83
2023/04/12 02:26:32;;;;;;;3.40;1.60;;;8.60;99.90;;;;;;5025654;28;20401;-83
2023/04/12 02:28:58;;;;;;;2.30;1.30;;;8.60;99.90;;;;;;5025285;28;20777;-83
2023/04/12 02:31:23;;;;;;;2.27;1.67;;;8.70;99.90;;;;;;5023579;28;20460;-83
2023/04/12 02:33:49;;;;;;;1.60;1.40;;;8.70;99.90;;;;;;5024572;28;20387;-83
2023/04/12 02:36:15;;;;;;;2.70;1.30;;;8.80;99.90;;;;;;5023555;28;20453;-83
2023/04/12 02:38:40;;;;;;;2.27;1.60;;;8.70;99.90;;;;;;5040731;28;20390;-83
2023/04/12 02:41:06;;;;;;;2.77;1.43;;;8.50;99.90;;;;;;5044485;28;20422;-83
2023/04/12 02:43:32;;;;;;;2.80;1.50;;;8.70;99.90;;;;;;5046447;28;20383;-84
2023/04/12 02:45:58;;;;;;;2.10;1.20;;;8.60;99.90;;;;;;5044858;28;20383;-83
2023/04/12 02:48:23;;;;;;;1.70;1.58;;;8.50;99.90;;;;;;5025724;28;20410;-83
2023/04/12 02:50:49;;;;;;;2.20;1.50;;;8.50;99.90;;;;;;5042207;28;20383;-83
2023/04/12 02:53:15;;;;;;;2.23;1.60;;;8.60;99.90;;;;;;5028328;28;20383;-83
2023/04/12 02:55:41;;;;;;;3.53;1.73;;;8.60;99.90;;;;;;5040521;28;20394;-83
2023/04/12 02:58:06;;;;;;;2.50;1.40;;;8.50;99.90;;;;;;5050515;28;20830;-82
2023/04/12 03:00:32;;;;;;;1.80;1.50;;;8.50;99.90;;;;;;5039511;28;20939;-83
2023/04/12 03:03:01;;;;;;;2.10;1.80;;;8.60;99.90;;;;;;5037896;28;20395;-83
2023/04/12 03:05:27;;;;;;;1.67;1.58;;;8.50;99.90;;;;;;5037548;28;20398;-83
2023/04/12 03:07:53;;;;;;;2.85;2.00;;;8.50;99.90;;;;;;5040451;28;20446;-83
2023/04/12 03:10:18;;;;;;;1.80;1.70;;;8.50;99.90;;;;;;5040024;28;20472;-83
2023/04/12 03:12:44;;;;;;;1.70;1.60;;;8.50;99.90;;;;;;5040059;28;20395;-83
2023/04/12 03:15:09;;;;;;;2.50;1.73;;;8.50;99.90;;;;;;5022373;28;20402;-82
2023/04/12 03:17:35;;;;;;;2.42;1.50;;;8.50;99.90;;;;;;5038630;28;20391;-83
2023/04/12 03:20:09;;;;;;;1.40;1.20;;;8.50;99.90;;;;;;5022428;28;20391;-83
2023/04/12 03:22:36;;;;;;;1.48;1.38;;;8.50;99.90;;;;;;5022262;28;20391;-83
2023/04/12 03:25:03;;;;;;;3.38;1.45;;;8.40;99.90;;;;;;5021637;28;20391;-83
2023/04/12 03:27:28;;;;;;;1.50;1.40;;;8.50;99.90;;;;;;5038358;28;20398;-83
2023/04/12 03:29:55;;;;;;;1.50;1.30;;;8.50;99.90;;;;;;5037036;28;20399;-83
2023/04/12 03:32:21;;;;;;;1.73;1.48;;;8.50;99.90;;;;;;5039161;28;20772;-83
2023/04/12 03:34:46;;;;;;;2.00;1.40;;;8.50;99.90;;;;;;5022558;28;20395;-83
2023/04/12 03:37:12;;;;;;;1.70;1.40;;;8.50;99.90;;;;;;5040257;28;20386;-83
2023/04/12 03:39:38;;;;;;;2.35;1.50;;;8.50;99.90;;;;;;5021874;28;20399;-83
2023/04/12 03:42:03;;;;;;;1.92;1.40;;;8.50;99.90;;;;;;5038549;28;20394;-83
2023/04/12 03:44:29;;;;;;;2.50;1.30;;;8.60;99.90;;;;;;5039136;28;20391;-82
2023/04/12 03:46:55;;;;;;;2.00;1.60;;;8.60;99.90;;;;;;5020982;28;20387;-83
2023/04/12 03:49:20;;;;;;;1.60;1.40;;;8.60;99.90;;;;;;5037484;28;20896;-82
2023/04/12 03:51:49;;;;;;;3.00;1.57;;;8.60;99.90;;;;;;5038326;28;20395;-82
2023/04/12 03:54:15;;;;;;;2.90;1.50;;;8.60;99.90;;;;;;5037963;28;20450;-82
2023/04/12 03:56:40;;;;;;;2.20;1.40;;;8.50;99.90;;;;;;5039365;28;20386;-82
2023/04/12 03:59:06;;;;;;;2.87;1.50;;;8.60;99.90;;;;;;5052391;28;20394;-82
2023/04/12 04:01:33;;;;;;;2.63;1.70;;;8.50;99.90;;;;;;5048662;28;20410;-81
2023/04/12 04:03:58;;;;;;;1.93;1.70;;;8.50;99.90;;;;;;5040049;28;20478;-82
2023/04/12 04:06:24;;;;;;;2.73;1.77;;;8.60;99.90;;;;;;5036237;28;20897;-81
2023/04/12 04:08:50;;;;;;;3.37;1.60;;;8.60;99.90;;;;;;5037422;28;20402;-81
2023/04/12 04:11:15;;;;;;;1.50;1.40;;;8.60;99.90;;;;;;5036981;28;20453;-82
2023/04/12 04:13:41;;;;;;;1.95;1.58;;;8.50;99.90;;;;;;5019364;28;20384;-83
2023/04/12 04:16:09;;;;;;;3.80;1.80;;;8.60;99.90;;;;;;5018736;28;20474;-81
2023/04/12 04:18:34;;;;;;;3.15;2.00;;;8.50;99.90;;;;;;5037230;28;20399;-82
2023/04/12 04:21:00;;;;;;;2.70;1.70;;;8.60;99.90;;;;;;5036880;28;20391;-82
2023/04/12 04:23:27;;;;;;;2.75;1.80;;;8.50;99.90;;;;;;5019627;28;20387;-82
2023/04/12 04:25:53;;;;;;;2.10;1.60;;;8.70;99.90;;;;;;5019018;28;20391;-82
2023/04/12 04:28:19;;;;;;;2.20;1.70;;;8.70;99.90;;;;;;5038271;28;20406;-82
2023/04/12 04:30:45;;;;;;;3.25;1.80;;;8.70;99.90;;;;;;5037090;28;20395;-82
2023/04/12 04:33:11;;;;;;;2.10;1.90;;;8.70;99.90;;;;;;5037229;28;20418;-82
2023/04/12 04:35:41;;;;;;;2.60;2.10;;;8.70;99.90;;;;;;5021228;28;20507;-82
2023/04/12 04:38:07;;;;;;;2.78;1.77;;;8.70;99.90;;;;;;5036575;28;20478;-82
2023/04/12 04:40:35;;;;;;;3.70;2.00;;;8.70;99.90;;;;;;5028771;28;20396;-80
2023/04/12 04:43:00;;;;;;;2.83;1.88;;;8.80;99.90;;;;;;5027151;28;20383;-82
2023/04/12 04:45:26;;;;;;;2.00;1.80;;;8.90;99.90;;;;;;5019860;28;20430;-82
2023/04/12 04:47:53;;;;;;;2.70;1.80;;;8.90;99.90;;;;;;5036641;28;20411;-82
2023/04/12 04:50:20;;;;;;;4.07;1.90;;;8.90;99.90;;;;;;5018768;28;20441;-82
2023/04/12 04:52:47;;;;;;;2.50;1.98;;;8.90;99.90;;;;;;5041383;28;20386;-82
2023/04/12 04:55:13;;;;;;;2.90;1.80;;;8.80;99.90;;;;;;5035031;28;20386;-82
2023/04/12 04:57:40;;;;;;;2.22;2.00;;;8.80;99.90;;;;;;5035547;28;20394;-82
2023/04/12 05:00:09;;;;;;;3.33;2.40;;;8.90;99.90;;;;;;5018375;28;20415;-82
2023/04/12 05:02:41;;;;;;;1.98;1.77;;;9.00;99.90;;;;;;5035810;28;20387;-82
2023/04/12 05:05:07;;;;;;;2.70;2.00;;;9.00;99.90;;;;;;5035082;28;20379;-82
2023/04/12 05:07:33;;;;;;;3.90;1.90;;;8.90;99.90;;;;;;5034118;28;20398;-82
2023/04/12 05:09:58;;;;;;;3.70;1.90;;;9.10;99.90;;;;;;5035595;28;20407;-82
2023/04/12 05:12:24;;;;;;;1.98;1.60;;;9.00;99.90;;;;;;5034992;28;20399;-82
2023/04/12 05:14:50;;;;;;;2.47;2.10;;;9.00;99.90;;;;;;5033749;28;20935;-82
2023/04/12 05:17:15;;;;;;;2.20;2.00;;;8.90;99.90;;;;;;5035094;28;20375;-82
2023/04/12 05:19:42;;;;;;;3.40;2.10;;;9.00;99.90;;;;;;5043215;28;20761;-82
2023/04/12 05:22:08;;;;;;;3.10;2.00;;;9.00;99.90;;;;;;5038033;28;20749;-83
2023/04/12 05:24:33;;;;;;;3.10;2.03;;;9.00;99.90;;;;;;5036706;28;20448;-82
2023/04/12 05:26:59;;;;;;;3.53;1.83;;;8.90;99.90;;;;;;5036227;28;20398;-83
2023/04/12 05:29:24;;;;;;;6.00;2.40;;;9.00;99.90;;;;;;5036629;28;20493;-83
2023/04/12 05:31:50;;;;;;;4.10;2.10;;;9.00;99.90;;;;;;5036128;28;20398;-82
2023/04/12 05:34:15;;;;;;;3.38;2.25;;;9.10;99.90;;;;;;5018933;28;20406;-82
2023/04/12 05:36:41;;;;;;;3.30;2.10;;;9.20;99.90;;;;;;5019007;28;20402;-82
2023/04/12 05:39:07;;;;;;;3.30;2.30;;;9.40;99.90;;;;;;5036596;28;20391;-83
2023/04/12 05:41:32;;;;;;;3.83;2.20;;;9.30;99.90;;;;;;5036893;28;20387;-82
2023/04/12 05:43:58;;;;;;;3.07;2.33;;;9.50;99.90;;;;;;5037577;28;20448;-83
2023/04/12 05:46:23;;;;;;;3.05;2.20;;;9.40;99.90;;;;;;5023032;28;20436;-83
2023/04/12 05:48:49;;;;;;;2.60;1.90;;;9.30;99.90;;;;;;5048384;28;20411;-82
2023/04/12 05:51:14;;;;;;;3.03;2.10;;;9.30;99.90;;;;;;5056495;28;20406;-83
2023/04/12 05:53:40;;;;;;;3.40;2.00;;;9.30;99.90;;;;;;5056533;28;20417;-83
2023/04/12 05:56:06;;;;;;;1.97;1.80;;;9.40;99.90;;;;;;5024132;28;20870;-84
2023/04/12 05:58:32;;;;;;;3.47;1.92;;;9.40;99.90;;;;;;5041113;28;20387;-83
2023/04/12 06:00:58;;;;;;;3.75;1.80;;;9.40;99.90;;;;;;5041522;28;20391;-83
2023/04/12 06:03:24;;;;;;;3.63;1.55;;;9.40;99.90;;;;;;5041011;28;20486;-83
2023/04/12 06:05:50;;;;;;;2.47;1.90;;;9.40;99.90;;;;;;5040867;28;20452;-83
2023/04/12 06:08:15;;;;;;;2.45;1.80;;;9.50;99.90;;;;;;5041402;28;20405;-83
2023/04/12 06:10:41;;;;;;;2.50;2.07;;;9.50;99.90;;;;;;5040500;28;20378;-83
2023/04/12 06:13:07;;;;;;;2.60;2.00;;;9.50;99.90;;;;;;5040434;28;20371;-83
2023/04/12 06:15:33;;;;;;;3.10;2.00;;;9.40;99.90;;;;;;5039146;28;20387;-83
2023/04/12 06:17:59;;;;;;;3.50;1.97;;;10.40;99.90;;;;;;5023335;28;20387;-84
2023/04/12 06:20:25;;;;;;;3.97;2.42;;;9.60;99.90;;;;;;5039119;28;20897;-83
2023/04/12 06:22:50;;;;;;;2.10;1.90;;;9.70;99.90;;;;;;5022537;28;20387;-84
2023/04/12 06:25:16;;;;;;;3.67;2.40;;;9.70;99.90;;;;;;5042247;28;20869;-85
2023/04/12 06:27:41;;;;;;;2.20;2.00;;;9.60;99.90;;;;;;5047915;28;20394;-85
2023/04/12 06:30:07;;;;;;;3.57;2.30;;;9.70;99.90;;;;;;5049994;28;20422;-84
2023/04/12 06:32:33;;;;;;;3.42;2.10;;;9.70;99.90;;;;;;5041190;28;20395;-84
2023/04/12 06:34:59;;;;;;;3.00;2.30;;;9.80;99.90;;;;;;5024888;28;20398;-84
2023/04/12 06:37:24;;;;;;;3.50;2.20;;;9.90;99.90;;;;;;5030497;28;20475;-84
2023/04/12 06:39:50;;;;;;;3.80;2.60;;;9.90;99.90;;;;;;5041600;28;20387;-85
2023/04/12 06:42:16;;;;;;;3.35;2.22;;;9.90;99.90;;;;;;5027985;28;20379;-84
2023/04/12 06:44:41;;;;;;;4.50;2.00;;;9.80;99.90;;;;;;5041649;28;20410;-84
2023/04/12 06:47:08;;;;;;;3.37;2.20;;;9.90;99.90;;;;;;5047605;28;20390;-84
2023/04/12 06:49:33;;;;;;;3.73;2.30;;;10.00;99.90;;;;;;5056892;28;20515;-84
2023/04/12 06:51:59;;;;;;;2.80;2.10;;;10.00;99.90;;;;;;5045981;28;20394;-84
2023/04/12 06:54:24;;;;;;;3.57;2.40;;;10.10;99.90;;;;;;5043584;28;20880;-84
2023/04/12 06:56:50;;;;;;;3.10;2.30;;;10.10;99.90;;;;;;5040943;28;20391;-84
2023/04/12 06:59:16;;;;;;;4.45;2.50;;;10.20;99.90;;;;;;5041521;28;20883;-84
2023/04/12 07:01:42;;;;;;;4.88;3.15;;;10.30;99.90;;;;;;5042465;28;20379;-84
2023/04/12 07:04:07;;;;;;;3.47;2.20;;;10.30;99.90;;;;;;5024820;28;20425;-85
2023/04/12 07:06:33;;;;;;;3.10;2.15;;;10.30;99.90;;;;;;5041187;28;20788;-84
2023/04/12 07:08:58;;;;;;;3.08;2.47;;;10.40;99.90;;;;;;5041708;28;20407;-84
2023/04/12 07:11:24;;;;;;;5.57;2.53;;;10.40;99.90;;;;;;5024501;28;20427;-84
2023/04/12 07:13:50;;;;;;;2.70;2.20;;;10.50;99.90;;;;;;5039989;28;20813;-84
2023/04/12 07:16:16;;;;;;;3.40;2.30;;;10.70;99.90;;;;;;5024015;28;20402;-84
2023/04/12 07:18:42;;;;;;;2.95;2.17;;;10.80;99.90;;;;;;5041552;28;20387;-84
2023/04/12 07:21:07;;;;;;;2.65;2.30;;;10.90;99.90;;;;;;5024080;28;20410;-84
2023/04/12 07:23:33;;;;;;;2.80;2.10;;;10.70;99.90;;;;;;5041831;28;20909;-84
2023/04/12 07:26:00;;;;;;;3.27;2.07;;;10.80;99.90;;;;;;5041732;28;20395;-85
2023/04/12 07:28:26;;;;;;;2.20;1.80;;;10.90;99.90;;;;;;5041997;28;20486;-84
2023/04/12 07:30:51;;;;;;;3.40;2.08;;;10.90;99.90;;;;;;5043181;28;20494;-84
2023/04/12 07:33:17;;;;;;;2.50;1.33;;;11.50;99.90;;;;;;5045109;28;20391;-84
2023/04/12 07:35:42;;;;;;;2.73;1.70;;;12.20;78.30;;;;;;5040515;28;20449;-83
2023/04/12 07:38:08;;;;;;;2.20;1.30;;;13.00;44.60;;;;;;5044754;28;20429;-82
2023/04/12 07:40:33;;;;;;;3.10;1.10;;;13.30;39.90;;;;;;5042887;28;20455;-84
2023/04/12 07:42:59;;;;;;;1.80;1.10;;;13.60;33.40;;;;;;5042636;28;20433;-84
2023/04/12 07:45:25;;;;;;;3.03;1.27;;;13.80;29.90;;;;;;5025075;28;20387;-83
2023/04/12 07:47:50;;;;;;;2.33;1.30;;;13.70;29.80;;;;;;5042606;28;20464;-84
2023/04/12 07:50:16;;;;;;;3.58;1.50;;;13.80;28.90;;;;;;5044543;28;20387;-84
2023/04/12 07:52:41;;;;;;;3.60;1.02;;;13.70;32.00;;;;;;5042103;28;20869;-84
2023/04/12 07:55:08;;;;;;;1.83;0.90;;;13.80;25.70;;;;;;5026729;28;20395;-85
2023/04/12 07:57:34;;;;;;;6.60;1.42;;;13.80;28.40;;;;;;5046892;28;20394;-85
2023/04/12 08:00:00;;;;;;;1.58;1.10;;;13.60;29.00;;;;;;5029643;28;20391;-82
2023/04/12 08:02:25;;;;;;;2.70;1.42;;;13.50;29.50;;;;;;5048933;28;20402;-83
2023/04/12 08:04:52;;;;;;;2.27;1.10;;;13.60;29.50;;;;;;5052045;28;20422;-84
2023/04/12 08:07:18;;;;;;;2.80;1.10;;;13.60;27.60;;;;;;5048607;28;20398;-85
2023/04/12 08:09:44;;;;;;;2.72;1.33;;;13.70;25.10;;;;;;5024790;28;20403;-84
2023/04/12 08:12:10;;;;;;;3.63;1.48;;;13.80;25.60;;;;;;5040037;28;20418;-85
2023/04/12 08:14:35;;;;;;;2.15;1.30;;;13.70;24.70;;;;;;5044434;28;20890;-84
2023/04/12 08:17:01;;;;;;;3.50;1.50;;;14.70;27.20;;;;;;5041866;28;20406;-84
2023/04/12 08:19:27;;;;;;;2.10;1.40;;;13.60;26.40;;;;;;5039822;28;20433;-85
2023/04/12 08:21:52;;;;;;;3.25;1.52;;;13.70;25.00;;;;;;5022310;28;20750;-84
2023/04/12 08:24:18;;;;;;;2.50;1.30;;;13.60;26.50;;;;;;5020336;28;20409;-84
2023/04/12 08:26:44;;;;;;;5.60;2.20;;;13.60;26.20;;;;;;5039061;28;20395;-85
2023/04/12 08:29:11;;;;;;;4.47;1.50;;;13.60;26.50;;;;;;5021969;28;20460;-84
2023/04/12 08:31:36;;;;;;;3.30;1.45;;;13.60;26.30;;;;;;5022620;28;20387;-83
2023/04/12 08:34:02;;;;;;;4.03;1.40;;;13.50;26.60;;;;;;5021230;28;20445;-83
2023/04/12 08:36:28;;;;;;;1.77;1.60;;;13.50;29.60;;;;;;5021058;28;20781;-85
2023/04/12 08:39:00;;;;;;;1.60;1.30;;;13.30;37.50;;;;;;5039486;28;20383;-84
2023/04/12 08:41:26;;;;;;;3.05;1.40;;;13.10;45.50;;;;;;5039908;28;20417;-84
2023/04/12 08:43:52;;;;;;;1.88;1.35;;;13.00;46.10;;;;;;5023640;28;20466;-84
2023/04/12 08:46:18;;;;;;;2.55;1.33;;;12.90;50.20;;;;;;5020851;28;20423;-84
2023/04/12 08:48:45;;;;;;;2.93;1.40;;;12.80;53.10;;;;;;5037006;28;20464;-84
2023/04/12 08:51:16;;;;;;;3.30;1.45;;;12.70;57.10;;;;;;5021578;28;20391;-83
2023/04/12 08:53:41;;;;;;;4.63;1.50;;;12.60;75.90;;;;;;5039114;28;20439;-84
2023/04/12 08:56:11;;;;;;;3.03;1.87;;;12.40;93.20;;;;;;5027215;28;20394;-83
2023/04/12 08:58:40;;;;;;;2.60;1.40;;;12.30;99.90;;;;;;5050199;28;20417;-84
2023/04/12 09:01:14;;;;;;;2.92;1.80;;;12.10;99.90;;;;;;5027733;28;20451;-84
2023/04/12 09:03:41;;;;;;;3.05;1.55;;;12.00;99.90;;;;;;5029144;28;20761;-84
2023/04/12 09:06:07;;;;;;;2.57;1.70;;;11.90;99.90;;;;;;5044287;28;20387;-84
2023/04/12 09:08:33;;;;;;;2.60;1.80;;;11.80;99.90;;;;;;5041516;28;20499;-85
2023/04/12 09:10:59;;;;;;;2.38;1.40;;;11.60;99.90;;;;;;5041091;28;20379;-85
2023/04/12 09:13:35;;;;;;;2.50;1.40;;;11.40;99.90;;;;;;5042470;28;20383;-84
2023/04/12 09:16:02;;;;;;;2.03;1.40;;;11.30;99.90;;;;;;5021982;28;20402;-84
2023/04/12 09:18:28;;;;;;;3.00;1.70;;;11.30;99.90;;;;;;5045730;28;20860;-85
2023/04/12 09:21:19;;;;;;;3.33;1.50;;;11.30;99.90;;;;;;5051818;28;20383;-83
2023/04/12 09:24:12;;;;;;;4.25;1.83;;;11.40;99.90;;;;;;5049526;28;20425;-83
2023/04/12 09:26:37;;;;;;;4.22;1.75;;;11.30;99.90;;;;;;5041761;28;20423;-85
2023/04/12 09:29:04;;;;;;;2.83;1.77;;;11.20;99.90;;;;;;5042432;28;20438;-85
2023/04/12 09:31:30;;;;;;;3.30;2.00;;;11.20;99.90;;;;;;5021923;28;20414;-85
2023/04/12 09:34:08;;;;;;;3.88;2.17;;;10.90;99.90;;;;;;5024058;28;20878;-83
2023/04/12 09:36:38;;;;;;;4.00;1.90;;;10.90;99.90;;;;;;5039507;28;20391;-84
2023/04/12 09:39:04;;;;;;;2.78;1.70;;;10.90;99.90;;;;;;5038959;28;20960;-84
2023/04/12 09:41:30;;;;;;;2.50;2.00;;;10.90;99.90;;;;;;5032602;28;20465;-83
2023/04/12 09:43:58;;;;;;;3.08;1.63;;;10.70;99.90;;;;;;5047868;28;20402;-85
2023/04/12 09:46:23;;;;;;;3.92;1.65;;;10.80;99.90;;;;;;5037387;28;20387;-84
2023/04/12 09:48:51;;;;;;;4.03;2.13;;;10.80;99.90;;;;;;5039670;28;20470;-85
2023/04/12 09:51:27;;;;;;;3.30;1.90;;;10.90;99.90;;;;;;5023054;28;20411;-84
2023/04/12 09:53:58;;;;;;;2.72;1.98;;;10.90;99.90;;;;;;5040582;28;20391;-84
2023/04/12 09:56:26;;;;;;;3.50;2.03;;;10.90;99.90;;;;;;5039639;28;20383;-86
2023/04/12 09:58:52;;;;;;;4.60;2.28;;;10.90;99.90;;;;;;5020942;28;20441;-84
2023/04/12 10:01:19;;;;;;;4.00;2.00;;;11.00;99.90;;;;;;5037509;28;20383;-84
2023/04/12 10:03:46;;;;;;;2.22;1.75;;;11.00;99.90;;;;;;5039687;28;20471;-84
2023/04/12 10:06:12;;;;;;;4.03;1.60;;;11.10;99.90;;;;;;5039514;28;20387;-84
2023/04/12 10:08:38;;;;;;;3.20;1.90;;;11.20;99.90;;;;;;5041763;28;20485;-85
2023/04/12 10:11:04;;;;;;;2.40;1.60;;;11.30;99.90;;;;;;5037764;28;20811;-84
2023/04/12 10:13:32;;;;;;;2.65;1.50;;;11.50;99.90;;;;;;5037177;28;20437;-85
2023/04/12 10:15:59;;;;;;;3.33;1.60;;;11.60;99.90;;;;;;5039610;28;20900;-83
2023/04/12 10:18:26;;;;;;;2.30;1.60;;;11.70;99.90;;;;;;5022241;28;20391;-84
2023/04/12 10:20:52;;;;;;;2.55;1.40;;;11.80;99.90;;;;;;5021643;28;20402;-85
2023/04/12 10:23:17;;;;;;;2.75;1.52;;;11.90;99.90;;;;;;5041650;28;20383;-84
2023/04/12 10:25:46;;;;;;;2.80;1.50;;;12.00;99.90;;;;;;5022106;28;20490;-84
2023/04/12 10:28:20;;;;;;;2.33;1.40;;;12.00;99.90;;;;;;5021372;28;20446;-84
2023/04/12 10:30:50;;;;;;;2.80;1.40;;;12.10;99.90;;;;;;5040010;28;20387;-85
2023/04/12 10:33:18;;;;;;;2.17;1.60;;;12.20;99.90;;;;;;5025386;28;20397;-83
2023/04/12 10:35:54;;;;;;;1.75;1.20;;;12.20;99.90;;;;;;5042414;28;20477;-85
2023/04/12 10:38:20;;;;;;;1.90;1.48;;;12.30;99.90;;;;;;5026892;28;20421;-85
2023/04/12 10:41:13;;;;;;;1.80;1.30;;;12.20;99.90;;;;;;5042775;28;20752;-84
2023/04/12 10:43:46;;;;;;;1.85;1.10;;;12.40;99.90;;;;;;5040326;28;20378;-85
2023/04/12 10:46:36;;;;;;;1.85;1.70;;;12.40;99.90;;;;;;5043480;28;20433;-85
2023/04/12 10:49:09;;;;;;;2.07;1.03;;;12.50;99.90;;;;;;5023562;28;20513;-84
2023/04/12 10:51:36;;;;;;;3.57;1.40;;;12.50;99.90;;;;;;5024600;28;20467;-85
2023/04/12 10:54:07;;;;;;;2.05;1.30;;;12.50;99.90;;;;;;5041406;28;20466;-85
2023/04/12 10:56:41;;;;;;;1.40;1.20;;;12.60;99.90;;;;;;5023173;28;20402;-83
2023/04/12 10:59:07;;;;;;;1.77;1.15;;;12.60;99.90;;;;;;5024328;28;20434;-84
2023/04/12 11:01:34;;;;;;;1.98;1.30;;;12.80;99.90;;;;;;5026266;28;20447;-85
2023/04/12 11:04:19;;;;;;;1.30;1.00;;;12.90;99.90;;;;;;5023628;28;20391;-83
2023/04/12 11:06:51;;;;;;;2.08;1.48;;;13.00;99.90;;;;;;5021816;28;20402;-85
2023/04/12 11:09:29;;;;;;;1.98;1.40;;;13.20;99.90;;;;;;5038585;28;20490;-83
2023/04/12 11:11:57;;;;;;;1.77;1.20;;;13.30;99.90;;;;;;5023597;28;20395;-84
2023/04/12 11:14:50;;;;;;;2.45;1.15;;;13.40;99.90;;;;;;5039939;28;20387;-83
2023/04/12 11:17:16;;;;;;;1.90;1.40;;;13.50;99.90;;;;;;5036586;28;20995;-83
2023/04/12 11:19:43;;;;;;;3.30;1.30;;;13.70;99.90;;;;;;5038337;28;20477;-82
2023/04/12 11:22:13;;;;;;;3.10;1.20;;;13.70;99.90;;;;;;5040185;28;20393;-82
2023/04/12 11:24:39;;;;;;;1.80;1.05;;;13.60;99.90;;;;;;5023446;28;20387;-82
2023/04/12 11:27:05;;;;;;;1.67;1.10;;;13.70;99.90;;;;;;5022981;28;20757;-83
2023/04/12 11:29:33;;;;;;;2.45;1.10;;;13.80;99.90;;;;;;5039259;28;20407;-83
2023/04/12 11:32:02;;;;;;;1.45;0.88;;;13.80;95.90;;;;;;5041417;28;20744;-84
2023/04/12 11:34:34;;;;;;;1.88;1.10;;;13.90;96.00;;;;;;5022086;28;20419;-84
2023/04/12 11:37:03;;;;;;;2.80;1.20;;;14.00;93.20;;;;;;5022209;28;20422;-83
2023/04/12 11:39:28;;;;;;;1.88;1.02;;;13.70;95.20;;;;;;5020182;28;20430;-83
2023/04/12 11:41:54;;;;;;;4.20;1.03;;;14.00;92.90;;;;;;5038755;28;20390;-84
2023/04/12 11:44:21;;;;;;;1.40;1.00;;;14.00;92.60;;;;;;5040453;28;20387;-83
2023/04/12 11:46:47;;;;;;;1.67;1.08;;;14.00;93.30;;;;;;5020625;28;20395;-83
2023/04/12 11:49:18;;;;;;;3.50;1.20;;;14.30;86.70;;;;;;5018152;28;20396;-83
2023/04/12 11:51:44;;;;;;;2.00;1.00;;;14.60;82.70;;;;;;5020651;28;20455;-83
2023/04/12 11:54:10;;;;;;;2.10;0.70;;;14.50;83.70;;;;;;5021431;28;20731;-84
2023/04/12 11:56:36;;;;;;;2.10;1.07;;;14.60;83.30;;;;;;5037746;28;20401;-84
2023/04/12 11:59:02;;;;;;;2.08;1.00;;;14.60;80.80;;;;;;5037861;28;20391;-83
2023/04/12 12:01:28;;;;;;;1.27;0.80;;;14.70;74.00;;;;;;5039615;28;20394;-81
2023/04/12 12:03:54;;;;;;;1.13;1.02;;;14.80;74.20;;;;;;5053251;28;20378;-82
2023/04/12 12:06:21;;;;;;;1.60;0.70;;;15.10;71.60;;;;;;5029351;28;20436;-83
2023/04/12 12:08:50;;;;;;;1.42;1.10;;;15.10;68.80;;;;;;5023791;28;20470;-81
2023/04/12 12:11:16;;;;;;;2.33;1.00;;;14.80;70.00;;;;;;5023924;28;20394;-83
2023/04/12 12:13:49;;;;;;;1.60;0.93;;;14.60;68.00;;;;;;5041269;28;20383;-84
2023/04/12 12:16:16;;;;;;;1.80;0.90;;;14.50;67.90;;;;;;5039597;28;20409;-83
2023/04/12 12:18:43;;;;;;;2.28;0.80;;;14.50;70.30;;;;;;5044715;28;20426;-80
2023/04/12 12:21:10;;;;;;;1.40;1.00;;;14.40;72.60;;;;;;5043043;28;20406;-84
2023/04/12 12:23:36;;;;;;;2.00;0.90;;;14.50;70.50;;;;;;5030136;28;20397;-82
2023/04/12 12:26:02;;;;;;;1.13;0.70;;;14.50;70.70;;;;;;5038704;28;20809;-82
2023/04/12 12:28:29;;;;;;;0.85;0.55;;;14.50;67.90;;;;;;5027482;28;20468;-83
2023/04/12 12:30:56;;;;;;;1.50;0.70;;;14.50;66.10;;;;;;5038670;28;20420;-80
2023/04/12 12:33:35;;;;;;;1.02;0.90;;;14.50;67.50;;;;;;5025807;28;20395;-83
2023/04/12 12:36:00;;;;;;;2.90;0.67;;;14.60;64.10;;;;;;5030375;28;20399;-81
2023/04/12 12:38:37;;;;;;;1.20;0.80;;;14.80;64.50;;;;;;5034757;28;20423;-81
2023/04/12 12:41:28;;;;;;;1.65;0.80;;;14.90;58.20;;;;;;5036712;28;20383;-83
2023/04/12 12:43:54;;;;;;;1.50;0.90;;;14.90;56.90;;;;;;5035593;28;20435;-83
2023/04/12 12:46:20;;;;;;;2.25;0.90;;;15.00;53.70;;;;;;5016901;28;20897;-83
2023/04/12 12:48:47;;;;;;;2.05;0.73;;;15.00;50.90;;;;;;5042969;28;20406;-83
2023/04/12 12:51:16;;;;;;;1.60;0.85;;;15.00;51.90;;;;;;5038905;28;20727;-82
2023/04/12 12:53:42;;;;;;;1.38;1.00;;;15.10;53.70;;;;;;5019607;28;20395;-82
2023/04/12 12:56:09;;;;;;;1.40;0.70;;;15.20;51.70;;;;;;5038167;28;20473;-84